sensor_id;sensor_type;location;lat;lon;timestamp;pressure;altitude;pressure_sealevel;temperature;humidity
75192;BME280;63771;52.580;9.734;2023-07-08T00:00:25;101671.88;;;17.90;61.79
75192;BME280;63771;52.580;9.734;2023-07-08T00:02:51;101670.69;;;17.85;61.70
75192;BME280;63771;52.580;9.734;2023-07-08T00:05:21;101679.53;;;17.88;61.69
75192;BME280;63771;52.580;9.734;2023-07-08T00:07:47;101677.94;;;17.90;61.61
75192;BME280;63771;52.580;9.734;2023-07-08T00:10:16;101676.16;;;17.89;61.77
75192;BME280;63771;52.580;9.734;2023-07-08T00:12:44;101668.53;;;17.91;61.69
75192;BME280;63771;52.580;9.734;2023-07-08T00:15:10;101670.00;;;17.87;61.99
75192;BME280;63771;52.580;9.734;2023-07-08T00:17:36;101665.84;;;17.89;61.86
75192;BME280;63771;52.580;9.734;2023-07-08T00:20:07;101664.94;;;17.89;62.22
75192;BME280;63771;52.580;9.734;2023-07-08T00:22:33;101659.28;;;17.81;62.72
75192;BME280;63771;52.580;9.734;2023-07-08T00:24:59;101661.06;;;17.82;62.16
75192;BME280;63771;52.580;9.734;2023-07-08T00:27:24;101657.16;;;17.76;62.56
75192;BME280;63771;52.580;9.734;2023-07-08T00:29:50;101659.63;;;17.74;62.65
75192;BME280;63771;52.580;9.734;2023-07-08T00:32:15;101653.56;;;17.73;62.88
75192;BME280;63771;52.580;9.734;2023-07-08T00:34:41;101657.63;;;17.70;62.76
75192;BME280;63771;52.580;9.734;2023-07-08T00:37:12;101655.47;;;17.64;62.70
75192;BME280;63771;52.580;9.734;2023-07-08T00:39:38;101659.66;;;17.62;63.18
75192;BME280;63771;52.580;9.734;2023-07-08T00:42:15;101659.88;;;17.65;63.00
75192;BME280;63771;52.580;9.734;2023-07-08T00:44:41;101658.19;;;17.66;63.21
75192;BME280;63771;52.580;9.734;2023-07-08T00:47:09;101659.47;;;17.59;63.40
75192;BME280;63771;52.580;9.734;2023-07-08T00:49:43;101648.91;;;17.56;63.62
75192;BME280;63771;52.580;9.734;2023-07-08T00:52:48;101649.16;;;17.59;63.28
75192;BME280;63771;52.580;9.734;2023-07-08T00:55:08;101649.81;;;17.57;63.23
75192;BME280;63771;52.580;9.734;2023-07-08T00:57:39;101645.34;;;17.54;63.49
75192;BME280;63771;52.580;9.734;2023-07-08T01:00:15;101649.59;;;17.54;63.33
75192;BME280;63771;52.580;9.734;2023-07-08T01:02:46;101651.66;;;17.46;63.76
75192;BME280;63771;52.580;9.734;2023-07-08T01:05:24;101651.56;;;17.44;63.90
75192;BME280;63771;52.580;9.734;2023-07-08T01:07:56;101651.00;;;17.37;64.24
75192;BME280;63771;52.580;9.734;2023-07-08T01:10:26;101654.72;;;17.40;64.10
75192;BME280;63771;52.580;9.734;2023-07-08T01:12:57;101644.97;;;17.36;64.00
75192;BME280;63771;52.580;9.734;2023-07-08T01:15:30;101649.00;;;17.33;64.43
75192;BME280;63771;52.580;9.734;2023-07-08T01:17:56;101639.47;;;17.32;64.21
75192;BME280;63771;52.580;9.734;2023-07-08T01:20:22;101640.28;;;17.31;64.61
75192;BME280;63771;52.580;9.734;2023-07-08T01:22:47;101636.47;;;17.26;64.75
75192;BME280;63771;52.580;9.734;2023-07-08T01:25:13;101636.38;;;17.24;64.87
75192;BME280;63771;52.580;9.734;2023-07-08T01:27:41;101633.47;;;17.19;64.96
75192;BME280;63771;52.580;9.734;2023-07-08T01:30:08;101626.53;;;17.18;65.02
75192;BME280;63771;52.580;9.734;2023-07-08T01:32:37;101632.25;;;17.14;64.99
75192;BME280;63771;52.580;9.734;2023-07-08T01:35:04;101632.81;;;17.10;65.22
75192;BME280;63771;52.580;9.734;2023-07-08T01:37:59;101633.38;;;17.06;66.00
75192;BME280;63771;52.580;9.734;2023-07-08T01:40:31;101640.94;;;17.03;65.59
75192;BME280;63771;52.580;9.734;2023-07-08T01:42:58;101629.28;;;16.97;65.87
75192;BME280;63771;52.580;9.734;2023-07-08T01:45:27;101624.44;;;17.01;65.78
75192;BME280;63771;52.580;9.734;2023-07-08T01:48:10;101621.66;;;16.98;66.10
75192;BME280;63771;52.580;9.734;2023-07-08T01:50:39;101617.97;;;16.94;65.81
75192;BME280;63771;52.580;9.734;2023-07-08T01:53:12;101617.75;;;16.91;65.99
75192;BME280;63771;52.580;9.734;2023-07-08T01:55:39;101615.06;;;16.90;65.75
75192;BME280;63771;52.580;9.734;2023-07-08T01:58:04;101609.22;;;16.81;66.43
75192;BME280;63771;52.580;9.734;2023-07-08T02:00:29;101608.34;;;16.80;66.32
75192;BME280;63771;52.580;9.734;2023-07-08T02:02:55;101603.00;;;16.77;66.57
75192;BME280;63771;52.580;9.734;2023-07-08T02:05:20;101612.28;;;16.75;66.78
75192;BME280;63771;52.580;9.734;2023-07-08T02:07:45;101610.13;;;16.69;66.94
75192;BME280;63771;52.580;9.734;2023-07-08T02:10:11;101605.75;;;16.68;66.67
75192;BME280;63771;52.580;9.734;2023-07-08T02:12:36;101609.13;;;16.67;67.06
75192;BME280;63771;52.580;9.734;2023-07-08T02:15:03;101611.72;;;16.67;67.11
75192;BME280;63771;52.580;9.734;2023-07-08T02:17:28;101604.78;;;16.66;66.67
75192;BME280;63771;52.580;9.734;2023-07-08T02:19:56;101601.84;;;16.62;67.08
75192;BME280;63771;52.580;9.734;2023-07-08T02:22:22;101600.53;;;16.55;67.32
75192;BME280;63771;52.580;9.734;2023-07-08T02:24:48;101598.72;;;16.54;67.59
75192;BME280;63771;52.580;9.734;2023-07-08T02:27:14;101601.75;;;16.49;68.09
75192;BME280;63771;52.580;9.734;2023-07-08T02:29:39;101587.53;;;16.42;68.17
75192;BME280;63771;52.580;9.734;2023-07-08T02:32:05;101588.53;;;16.44;67.88
75192;BME280;63771;52.580;9.734;2023-07-08T02:34:31;101595.38;;;16.43;67.67
75192;BME280;63771;52.580;9.734;2023-07-08T02:36:56;101590.13;;;16.42;67.81
75192;BME280;63771;52.580;9.734;2023-07-08T02:39:22;101588.88;;;16.37;68.50
75192;BME280;63771;52.580;9.734;2023-07-08T02:41:47;101604.69;;;16.41;68.02
75192;BME280;63771;52.580;9.734;2023-07-08T02:44:13;101596.94;;;16.41;68.13
75192;BME280;63771;52.580;9.734;2023-07-08T02:46:38;101595.16;;;16.40;67.82
75192;BME280;63771;52.580;9.734;2023-07-08T02:49:03;101594.13;;;16.38;68.09
75192;BME280;63771;52.580;9.734;2023-07-08T02:51:29;101594.28;;;16.40;68.13
75192;BME280;63771;52.580;9.734;2023-07-08T02:53:55;101589.56;;;16.34;67.97
75192;BME280;63771;52.580;9.734;2023-07-08T02:56:20;101592.00;;;16.33;68.24
75192;BME280;63771;52.580;9.734;2023-07-08T02:58:48;101577.91;;;16.28;68.56
75192;BME280;63771;52.580;9.734;2023-07-08T03:01:16;101583.84;;;16.27;68.55
75192;BME280;63771;52.580;9.734;2023-07-08T03:03:43;101583.66;;;16.24;69.06
75192;BME280;63771;52.580;9.734;2023-07-08T03:06:08;101574.09;;;16.23;68.26
75192;BME280;63771;52.580;9.734;2023-07-08T03:08:34;101585.97;;;16.21;68.65
75192;BME280;63771;52.580;9.734;2023-07-08T03:11:02;101584.75;;;16.15;68.80
75192;BME280;63771;52.580;9.734;2023-07-08T03:13:29;101587.97;;;16.13;69.43
75192;BME280;63771;52.580;9.734;2023-07-08T03:15:55;101585.09;;;16.08;69.41
75192;BME280;63771;52.580;9.734;2023-07-08T03:18:21;101597.19;;;16.09;69.91
75192;BME280;63771;52.580;9.734;2023-07-08T03:20:48;101585.84;;;16.07;69.72
75192;BME280;63771;52.580;9.734;2023-07-08T03:23:14;101583.06;;;16.04;69.71
75192;BME280;63771;52.580;9.734;2023-07-08T03:25:39;101588.13;;;16.03;70.00
75192;BME280;63771;52.580;9.734;2023-07-08T03:28:05;101581.94;;;16.01;69.87
75192;BME280;63771;52.580;9.734;2023-07-08T03:30:32;101586.19;;;16.00;69.73
75192;BME280;63771;52.580;9.734;2023-07-08T03:32:58;101585.31;;;16.00;70.06
75192;BME280;63771;52.580;9.734;2023-07-08T03:35:23;101581.03;;;16.00;69.64
75192;BME280;63771;52.580;9.734;2023-07-08T03:37:49;101582.03;;;16.02;69.49
75192;BME280;63771;52.580;9.734;2023-07-08T03:40:14;101579.16;;;15.98;70.41
75192;BME280;63771;52.580;9.734;2023-07-08T03:42:39;101581.72;;;15.98;69.99
75192;BME280;63771;52.580;9.734;2023-07-08T03:45:05;101576.34;;;15.95;70.66
75192;BME280;63771;52.580;9.734;2023-07-08T03:47:30;101578.13;;;15.96;70.80
75192;BME280;63771;52.580;9.734;2023-07-08T03:49:56;101579.03;;;15.96;70.64
75192;BME280;63771;52.580;9.734;2023-07-08T03:52:21;101574.00;;;15.98;70.72
75192;BME280;63771;52.580;9.734;2023-07-08T03:54:47;101583.63;;;16.00;70.68
75192;BME280;63771;52.580;9.734;2023-07-08T03:57:12;101584.31;;;15.98;70.68
75192;BME280;63771;52.580;9.734;2023-07-08T03:59:37;101577.69;;;15.89;71.54
75192;BME280;63771;52.580;9.734;2023-07-08T04:02:03;101582.72;;;15.88;71.07
75192;BME280;63771;52.580;9.734;2023-07-08T04:04:28;101585.50;;;15.91;70.62
75192;BME280;63771;52.580;9.734;2023-07-08T04:06:54;101587.09;;;15.89;71.05
75192;BME280;63771;52.580;9.734;2023-07-08T04:09:20;101581.25;;;15.91;70.72
75192;BME280;63771;52.580;9.734;2023-07-08T04:11:45;101578.81;;;15.93;70.95
75192;BME280;63771;52.580;9.734;2023-07-08T04:14:11;101580.25;;;15.89;71.05
75192;BME280;63771;52.580;9.734;2023-07-08T04:16:46;101573.97;;;15.86;71.93
75192;BME280;63771;52.580;9.734;2023-07-08T04:19:23;101587.97;;;15.89;71.32
75192;BME280;63771;52.580;9.734;2023-07-08T04:21:50;101571.63;;;15.89;71.90
75192;BME280;63771;52.580;9.734;2023-07-08T04:24:16;101568.28;;;15.90;71.83
75192;BME280;63771;52.580;9.734;2023-07-08T04:26:43;101577.00;;;15.92;71.73
75192;BME280;63771;52.580;9.734;2023-07-08T04:29:12;101573.88;;;15.96;71.67
75192;BME280;63771;52.580;9.734;2023-07-08T04:31:38;101579.03;;;15.96;72.15
75192;BME280;63771;52.580;9.734;2023-07-08T04:34:03;101582.13;;;15.92;72.01
75192;BME280;63771;52.580;9.734;2023-07-08T04:36:29;101587.63;;;15.97;72.15
75192;BME280;63771;52.580;9.734;2023-07-08T04:38:54;101589.31;;;15.96;71.95
75192;BME280;63771;52.580;9.734;2023-07-08T04:41:22;101587.78;;;15.98;72.54
75192;BME280;63771;52.580;9.734;2023-07-08T04:43:48;101588.78;;;16.00;72.96
75192;BME280;63771;52.580;9.734;2023-07-08T04:46:27;101580.16;;;16.00;73.11
75192;BME280;63771;52.580;9.734;2023-07-08T04:48:55;101586.44;;;16.03;72.99
75192;BME280;63771;52.580;9.734;2023-07-08T04:51:20;101584.63;;;16.02;73.38
75192;BME280;63771;52.580;9.734;2023-07-08T04:53:46;101592.81;;;16.08;73.73
75192;BME280;63771;52.580;9.734;2023-07-08T04:56:11;101589.78;;;16.14;73.62
75192;BME280;63771;52.580;9.734;2023-07-08T04:58:36;101587.31;;;16.15;73.75
75192;BME280;63771;52.580;9.734;2023-07-08T05:01:02;101582.63;;;16.22;73.50
75192;BME280;63771;52.580;9.734;2023-07-08T05:03:27;101586.44;;;16.27;73.49
75192;BME280;63771;52.580;9.734;2023-07-08T05:05:52;101581.50;;;16.30;73.95
75192;BME280;63771;52.580;9.734;2023-07-08T05:08:17;101588.00;;;16.36;73.80
75192;BME280;63771;52.580;9.734;2023-07-08T05:10:43;101583.28;;;16.42;73.60
75192;BME280;63771;52.580;9.734;2023-07-08T05:13:09;101587.97;;;16.48;73.86
75192;BME280;63771;52.580;9.734;2023-07-08T05:15:35;101585.72;;;16.53;73.51
75192;BME280;63771;52.580;9.734;2023-07-08T05:18:01;101595.81;;;16.61;73.53
75192;BME280;63771;52.580;9.734;2023-07-08T05:20:26;101595.25;;;16.65;73.94
75192;BME280;63771;52.580;9.734;2023-07-08T05:22:52;101590.41;;;16.70;74.12
75192;BME280;63771;52.580;9.734;2023-07-08T05:25:18;101596.94;;;16.77;73.23
75192;BME280;63771;52.580;9.734;2023-07-08T05:27:44;101597.38;;;16.83;73.37
75192;BME280;63771;52.580;9.734;2023-07-08T05:30:14;101588.28;;;16.88;73.51
75192;BME280;63771;52.580;9.734;2023-07-08T05:32:40;101594.66;;;16.93;72.94
75192;BME280;63771;52.580;9.734;2023-07-08T05:35:06;101590.72;;;16.98;73.05
75192;BME280;63771;52.580;9.734;2023-07-08T05:37:31;101593.81;;;17.06;73.14
75192;BME280;63771;52.580;9.734;2023-07-08T05:39:56;101591.66;;;17.12;72.76
75192;BME280;63771;52.580;9.734;2023-07-08T05:42:26;101601.53;;;17.17;72.86
75192;BME280;63771;52.580;9.734;2023-07-08T05:44:52;101598.34;;;17.21;72.80
75192;BME280;63771;52.580;9.734;2023-07-08T05:47:17;101602.16;;;17.27;72.33
75192;BME280;63771;52.580;9.734;2023-07-08T05:49:43;101600.78;;;17.32;71.57
75192;BME280;63771;52.580;9.734;2023-07-08T05:52:08;101603.91;;;17.39;71.33
75192;BME280;63771;52.580;9.734;2023-07-08T05:54:39;101589.50;;;17.43;70.65
75192;BME280;63771;52.580;9.734;2023-07-08T05:57:08;101596.91;;;17.50;69.88
75192;BME280;63771;52.580;9.734;2023-07-08T05:59:35;101596.41;;;17.56;69.68
75192;BME280;63771;52.580;9.734;2023-07-08T06:02:02;101593.25;;;17.60;69.59
75192;BME280;63771;52.580;9.734;2023-07-08T06:04:27;101586.72;;;17.65;68.66
75192;BME280;63771;52.580;9.734;2023-07-08T06:06:53;101590.72;;;17.73;68.55
75192;BME280;63771;52.580;9.734;2023-07-08T06:09:18;101589.34;;;17.78;68.09
75192;BME280;63771;52.580;9.734;2023-07-08T06:11:44;101590.56;;;17.83;68.14
75192;BME280;63771;52.580;9.734;2023-07-08T06:14:09;101589.47;;;17.93;67.37
75192;BME280;63771;52.580;9.734;2023-07-08T06:16:35;101591.66;;;18.00;67.53
75192;BME280;63771;52.580;9.734;2023-07-08T06:19:00;101590.28;;;18.05;67.83
75192;BME280;63771;52.580;9.734;2023-07-08T06:21:25;101592.88;;;18.18;66.18
75192;BME280;63771;52.580;9.734;2023-07-08T06:23:51;101585.44;;;18.23;66.05
75192;BME280;63771;52.580;9.734;2023-07-08T06:26:16;101584.22;;;18.31;66.51
75192;BME280;63771;52.580;9.734;2023-07-08T06:28:41;101581.13;;;18.37;66.45
75192;BME280;63771;52.580;9.734;2023-07-08T06:31:07;101580.75;;;18.44;66.32
75192;BME280;63771;52.580;9.734;2023-07-08T06:33:32;101581.94;;;18.49;66.36
75192;BME280;63771;52.580;9.734;2023-07-08T06:35:57;101582.41;;;18.57;66.14
75192;BME280;63771;52.580;9.734;2023-07-08T06:38:23;101582.13;;;18.65;66.02
75192;BME280;63771;52.580;9.734;2023-07-08T06:40:48;101586.91;;;18.72;65.61
75192;BME280;63771;52.580;9.734;2023-07-08T06:43:14;101588.38;;;18.82;66.97
75192;BME280;63771;52.580;9.734;2023-07-08T06:45:40;101588.06;;;18.91;66.34
75192;BME280;63771;52.580;9.734;2023-07-08T06:48:06;101574.63;;;18.96;64.16
75192;BME280;63771;52.580;9.734;2023-07-08T06:50:31;101583.91;;;19.08;64.71
75192;BME280;63771;52.580;9.734;2023-07-08T06:52:57;101586.19;;;19.16;64.80
75192;BME280;63771;52.580;9.734;2023-07-08T06:55:23;101583.97;;;19.22;63.77
75192;BME280;63771;52.580;9.734;2023-07-08T06:57:48;101580.94;;;19.29;64.14
75192;BME280;63771;52.580;9.734;2023-07-08T07:00:14;101585.78;;;19.38;63.98
75192;BME280;63771;52.580;9.734;2023-07-08T07:02:39;101575.06;;;19.47;64.14
75192;BME280;63771;52.580;9.734;2023-07-08T07:05:05;101579.03;;;19.55;64.67
75192;BME280;63771;52.580;9.734;2023-07-08T07:07:31;101576.41;;;19.68;63.15
75192;BME280;63771;52.580;9.734;2023-07-08T07:09:56;101577.56;;;19.73;62.51
75192;BME280;63771;52.580;9.734;2023-07-08T07:12:25;101577.13;;;19.80;61.89
75192;BME280;63771;52.580;9.734;2023-07-08T07:14:51;101575.84;;;19.89;61.96
75192;BME280;63771;52.580;9.734;2023-07-08T07:17:23;101564.06;;;19.94;61.85
75192;BME280;63771;52.580;9.734;2023-07-08T07:19:48;101568.00;;;20.02;62.04
75192;BME280;63771;52.580;9.734;2023-07-08T07:22:15;101574.41;;;20.08;61.38
75192;BME280;63771;52.580;9.734;2023-07-08T07:24:40;101567.09;;;20.16;62.25
75192;BME280;63771;52.580;9.734;2023-07-08T07:27:06;101565.91;;;20.26;62.21
75192;BME280;63771;52.580;9.734;2023-07-08T07:29:43;101567.28;;;20.36;61.59
75192;BME280;63771;52.580;9.734;2023-07-08T07:32:10;101574.78;;;20.46;61.80
75192;BME280;63771;52.580;9.734;2023-07-08T07:34:36;101572.66;;;20.53;61.46
75192;BME280;63771;52.580;9.734;2023-07-08T07:37:01;101569.50;;;20.59;61.37
75192;BME280;63771;52.580;9.734;2023-07-08T07:39:27;101568.38;;;20.70;61.01
75192;BME280;63771;52.580;9.734;2023-07-08T07:41:53;101570.50;;;20.77;61.10
75192;BME280;63771;52.580;9.734;2023-07-08T07:44:19;101560.47;;;20.83;61.03
75192;BME280;63771;52.580;9.734;2023-07-08T07:46:44;101570.44;;;20.92;58.34
75192;BME280;63771;52.580;9.734;2023-07-08T07:49:09;101566.25;;;20.94;58.88
75192;BME280;63771;52.580;9.734;2023-07-08T07:51:35;101566.81;;;21.05;59.38
75192;BME280;63771;52.580;9.734;2023-07-08T07:54:00;101571.44;;;21.10;59.33
75192;BME280;63771;52.580;9.734;2023-07-08T07:56:25;101570.22;;;21.20;58.75
75192;BME280;63771;52.580;9.734;2023-07-08T07:58:50;101578.41;;;21.28;59.42
75192;BME280;63771;52.580;9.734;2023-07-08T08:01:16;101565.88;;;21.35;59.00
75192;BME280;63771;52.580;9.734;2023-07-08T08:03:41;101570.56;;;21.43;59.29
75192;BME280;63771;52.580;9.734;2023-07-08T08:06:06;101571.84;;;21.51;58.91
75192;BME280;63771;52.580;9.734;2023-07-08T08:08:32;101566.22;;;21.59;58.58
75192;BME280;63771;52.580;9.734;2023-07-08T08:10:57;101569.03;;;21.64;57.42
75192;BME280;63771;52.580;9.734;2023-07-08T08:13:22;101562.31;;;21.68;57.69
75192;BME280;63771;52.580;9.734;2023-07-08T08:15:48;101562.75;;;21.77;58.15
75192;BME280;63771;52.580;9.734;2023-07-08T08:18:13;101558.84;;;21.85;57.33
75192;BME280;63771;52.580;9.734;2023-07-08T08:20:38;101556.63;;;21.93;57.03
75192;BME280;63771;52.580;9.734;2023-07-08T08:23:04;101554.22;;;21.97;57.37
75192;BME280;63771;52.580;9.734;2023-07-08T08:25:31;101558.94;;;22.04;57.36
75192;BME280;63771;52.580;9.734;2023-07-08T08:27:56;101556.56;;;22.09;56.72
75192;BME280;63771;52.580;9.734;2023-07-08T08:30:22;101563.13;;;22.19;57.08
75192;BME280;63771;52.580;9.734;2023-07-08T08:32:47;101566.25;;;22.29;55.65
75192;BME280;63771;52.580;9.734;2023-07-08T08:35:13;101566.66;;;22.38;55.02
75192;BME280;63771;52.580;9.734;2023-07-08T08:37:38;101572.91;;;22.42;56.34
75192;BME280;63771;52.580;9.734;2023-07-08T08:40:04;101569.66;;;22.46;54.89
75192;BME280;63771;52.580;9.734;2023-07-08T08:42:38;101558.66;;;22.52;54.11
75192;BME280;63771;52.580;9.734;2023-07-08T08:45:05;101572.81;;;22.58;55.09
75192;BME280;63771;52.580;9.734;2023-07-08T08:50:10;101571.69;;;22.71;55.67
75192;BME280;63771;52.580;9.734;2023-07-08T08:52:41;101565.13;;;22.79;56.25
75192;BME280;63771;52.580;9.734;2023-07-08T08:55:11;101562.41;;;22.96;54.14
75192;BME280;63771;52.580;9.734;2023-07-08T08:57:45;101562.91;;;23.06;52.80
75192;BME280;63771;52.580;9.734;2023-07-08T09:00:17;101567.44;;;23.10;54.15
75192;BME280;63771;52.580;9.734;2023-07-08T09:03:18;101549.41;;;23.15;54.25
75192;BME280;63771;52.580;9.734;2023-07-08T09:05:46;101548.06;;;23.23;54.57
75192;BME280;63771;52.580;9.734;2023-07-08T09:08:20;101548.50;;;23.34;54.86
75192;BME280;63771;52.580;9.734;2023-07-08T09:10:57;101544.50;;;23.42;52.88
75192;BME280;63771;52.580;9.734;2023-07-08T09:13:32;101551.91;;;23.52;52.98
75192;BME280;63771;52.580;9.734;2023-07-08T09:18:58;101548.59;;;23.76;53.42
75192;BME280;63771;52.580;9.734;2023-07-08T09:21:41;101546.53;;;23.89;52.52
75192;BME280;63771;52.580;9.734;2023-07-08T09:24:17;101534.78;;;23.99;52.97
75192;BME280;63771;52.580;9.734;2023-07-08T09:26:46;101537.84;;;24.11;52.40
75192;BME280;63771;52.580;9.734;2023-07-08T09:29:13;101535.66;;;24.22;51.16
75192;BME280;63771;52.580;9.734;2023-07-08T09:31:39;101533.44;;;24.31;51.11
75192;BME280;63771;52.580;9.734;2023-07-08T09:34:15;101534.53;;;24.36;50.09
75192;BME280;63771;52.580;9.734;2023-07-08T09:36:46;101532.16;;;24.42;50.76
75192;BME280;63771;52.580;9.734;2023-07-08T09:39:14;101532.44;;;24.49;50.50
75192;BME280;63771;52.580;9.734;2023-07-08T09:41:42;101532.88;;;24.61;52.13
75192;BME280;63771;52.580;9.734;2023-07-08T09:44:27;101529.78;;;24.71;51.84
75192;BME280;63771;52.580;9.734;2023-07-08T09:46:57;101532.88;;;24.85;50.54
75192;BME280;63771;52.580;9.734;2023-07-08T09:49:27;101529.72;;;24.93;50.03
75192;BME280;63771;52.580;9.734;2023-07-08T09:51:53;101528.41;;;25.05;48.78
75192;BME280;63771;52.580;9.734;2023-07-08T09:54:23;101526.81;;;25.08;49.83
75192;BME280;63771;52.580;9.734;2023-07-08T09:56:54;101529.81;;;25.19;49.16
75192;BME280;63771;52.580;9.734;2023-07-08T09:59:22;101528.47;;;25.30;48.62
75192;BME280;63771;52.580;9.734;2023-07-08T10:01:51;101534.03;;;25.39;48.86
75192;BME280;63771;52.580;9.734;2023-07-08T10:04:18;101527.31;;;25.47;47.92
75192;BME280;63771;52.580;9.734;2023-07-08T10:06:44;101526.72;;;25.55;47.85
75192;BME280;63771;52.580;9.734;2023-07-08T10:09:18;101530.53;;;25.64;48.50
75192;BME280;63771;52.580;9.734;2023-07-08T10:11:48;101524.84;;;25.76;46.38
75192;BME280;63771;52.580;9.734;2023-07-08T10:14:26;101526.63;;;25.77;45.82
75192;BME280;63771;52.580;9.734;2023-07-08T10:16:52;101525.16;;;25.85;46.41
75192;BME280;63771;52.580;9.734;2023-07-08T10:19:19;101520.06;;;25.90;45.94
75192;BME280;63771;52.580;9.734;2023-07-08T10:27:30;101520.75;;;26.11;44.10
75192;BME280;63771;52.580;9.734;2023-07-08T10:30:11;101512.28;;;26.20;44.75
75192;BME280;63771;52.580;9.734;2023-07-08T10:32:52;101520.47;;;26.31;45.86
75192;BME280;63771;52.580;9.734;2023-07-08T10:35:40;101518.97;;;26.39;44.21
75192;BME280;63771;52.580;9.734;2023-07-08T10:38:34;101524.47;;;26.46;42.97
75192;BME280;63771;52.580;9.734;2023-07-08T10:47:22;101519.22;;;26.75;43.65
75192;BME280;63771;52.580;9.734;2023-07-08T10:49:59;101520.38;;;26.85;44.27
75192;BME280;63771;52.580;9.734;2023-07-08T10:53:04;101509.25;;;26.93;42.34
75192;BME280;63771;52.580;9.734;2023-07-08T10:55:47;101501.56;;;26.99;41.23
75192;BME280;63771;52.580;9.734;2023-07-08T11:04:27;101503.78;;;27.16;41.30
75192;BME280;63771;52.580;9.734;2023-07-08T11:09:48;101498.06;;;27.30;40.64
75192;BME280;63771;52.580;9.734;2023-07-08T11:12:26;101496.50;;;27.37;39.32
75192;BME280;63771;52.580;9.734;2023-07-08T11:15:17;101499.25;;;27.43;38.22
75192;BME280;63771;52.580;9.734;2023-07-08T11:18:01;101501.19;;;27.50;38.58
75192;BME280;63771;52.580;9.734;2023-07-08T11:20:52;101497.78;;;27.54;39.35
75192;BME280;63771;52.580;9.734;2023-07-08T11:23:38;101498.03;;;27.64;39.83
75192;BME280;63771;52.580;9.734;2023-07-08T11:29:04;101497.59;;;27.80;38.87
75192;BME280;63771;52.580;9.734;2023-07-08T11:31:35;101501.28;;;27.88;37.67
75192;BME280;63771;52.580;9.734;2023-07-08T11:34:01;101492.63;;;27.92;36.54
75192;BME280;63771;52.580;9.734;2023-07-08T11:36:29;101494.47;;;27.96;35.79
75192;BME280;63771;52.580;9.734;2023-07-08T11:38:56;101484.06;;;27.99;35.82
75192;BME280;63771;52.580;9.734;2023-07-08T11:41:25;101492.94;;;28.06;36.02
75192;BME280;63771;52.580;9.734;2023-07-08T11:43:57;101487.84;;;28.14;36.35
75192;BME280;63771;52.580;9.734;2023-07-08T11:46:28;101485.41;;;28.20;34.97
75192;BME280;63771;52.580;9.734;2023-07-08T11:49:00;101477.63;;;28.24;33.79
75192;BME280;63771;52.580;9.734;2023-07-08T11:51:29;101479.53;;;28.31;34.80
75192;BME280;63771;52.580;9.734;2023-07-08T11:56:57;101471.78;;;28.36;34.52
75192;BME280;63771;52.580;9.734;2023-07-08T11:59:30;101463.03;;;28.36;33.07
75192;BME280;63771;52.580;9.734;2023-07-08T12:02:14;101463.03;;;28.36;32.98
75192;BME280;63771;52.580;9.734;2023-07-08T12:05:01;101460.44;;;28.39;34.71
75192;BME280;63771;52.580;9.734;2023-07-08T12:07:40;101460.53;;;28.43;35.01
75192;BME280;63771;52.580;9.734;2023-07-08T12:10:17;101454.53;;;28.49;33.14
75192;BME280;63771;52.580;9.734;2023-07-08T12:12:45;101457.16;;;28.49;32.56
75192;BME280;63771;52.580;9.734;2023-07-08T12:15:22;101459.88;;;28.53;32.66
75192;BME280;63771;52.580;9.734;2023-07-08T12:17:48;101452.06;;;28.56;32.99
75192;BME280;63771;52.580;9.734;2023-07-08T12:22:44;101458.41;;;28.66;34.44
75192;BME280;63771;52.580;9.734;2023-07-08T12:25:17;101461.09;;;28.71;34.81
75192;BME280;63771;52.580;9.734;2023-07-08T12:27:45;101461.16;;;28.74;34.29
75192;BME280;63771;52.580;9.734;2023-07-08T12:30:11;101459.44;;;28.76;33.78
75192;BME280;63771;52.580;9.734;2023-07-08T12:32:38;101450.75;;;28.80;34.11
75192;BME280;63771;52.580;9.734;2023-07-08T12:35:04;101445.59;;;28.83;33.69
75192;BME280;63771;52.580;9.734;2023-07-08T12:37:31;101451.81;;;28.88;35.83
75192;BME280;63771;52.580;9.734;2023-07-08T12:39:57;101442.34;;;28.96;34.86
75192;BME280;63771;52.580;9.734;2023-07-08T12:42:32;101442.44;;;29.02;34.28
75192;BME280;63771;52.580;9.734;2023-07-08T12:44:57;101443.38;;;29.04;33.41
75192;BME280;63771;52.580;9.734;2023-07-08T12:47:23;101430.25;;;29.04;31.93
75192;BME280;63771;52.580;9.734;2023-07-08T12:49:48;101433.75;;;29.06;32.28
75192;BME280;63771;52.580;9.734;2023-07-08T12:52:21;101440.78;;;29.07;32.34
75192;BME280;63771;52.580;9.734;2023-07-08T12:54:49;101438.22;;;29.09;32.68
75192;BME280;63771;52.580;9.734;2023-07-08T12:57:16;101441.81;;;29.14;32.77
75192;BME280;63771;52.580;9.734;2023-07-08T12:59:43;101428.75;;;29.19;31.69
75192;BME280;63771;52.580;9.734;2023-07-08T13:02:20;101435.78;;;29.23;29.71
75192;BME280;63771;52.580;9.734;2023-07-08T13:04:49;101439.34;;;29.25;30.86
75192;BME280;63771;52.580;9.734;2023-07-08T13:07:34;101432.44;;;29.30;33.15
75192;BME280;63771;52.580;9.734;2023-07-08T13:10:02;101429.00;;;29.34;33.00
75192;BME280;63771;52.580;9.734;2023-07-08T13:12:29;101421.13;;;29.37;29.04
75192;BME280;63771;52.580;9.734;2023-07-08T13:14:57;101420.25;;;29.35;30.61
75192;BME280;63771;52.580;9.734;2023-07-08T13:17:23;101419.38;;;29.34;32.11
75192;BME280;63771;52.580;9.734;2023-07-08T13:19:49;101424.66;;;29.37;32.68
75192;BME280;63771;52.580;9.734;2023-07-08T13:22:20;101427.44;;;29.45;31.90
75192;BME280;63771;52.580;9.734;2023-07-08T13:24:46;101426.63;;;29.51;31.35
75192;BME280;63771;52.580;9.734;2023-07-08T13:27:18;101422.38;;;29.57;31.07
75192;BME280;63771;52.580;9.734;2023-07-08T13:29:45;101418.97;;;29.64;30.21
75192;BME280;63771;52.580;9.734;2023-07-08T13:32:11;101415.53;;;29.69;30.00